Concan, Texas
Current Conditions -  °F | °C
As of 5:55 AM on Wednesday 28 Jan 2015 (Local Time) from KUVA Reporting Station
Clear Clear  
Wind Chill: 46°   Ceiling: Unl
Heat Index: 46°   Visibility: 10mi
Dew Point: 39°   Wind: 3mph
Humidity: 75%   Direction: 50°NE
Pressure: 30.13"   Gusts: NA
Location:  29.5°N, 99.71°W
Report Text: KUVA 281155Z AUTO 05003KT 10SM CLR 08/04 A3013 RMK AO2 T00800038 10112 20073
Loading
Personal Weather Stations






























Interactive Weather Map New forecast layout! Learn more

10-Day Weather Forecast

Advertisements
Track Severe Weather on mobile